Time;durP1;ratioP1;P1;durP2;ratioP2;P2;SDS_P1;SDS_P2;PMS_P1;PMS_P2;Temp;Humidity;BMP_temperature;BMP_pressure;BME280_temperature;BME280_humidity;BME280_pressure;Samples;Min_cycle;Max_cycle;Signal;HPM_P1;HPM_P2
2024/01/27 00:00:11;;;;;;;3.35;2.00;;;7.50;82.30;;;;;;5013956;28;20133;-89
2024/01/27 00:02:37;;;;;;;3.30;2.30;;;7.50;82.30;;;;;;4987670;28;20038;-84
2024/01/27 00:05:03;;;;;;;4.05;2.67;;;7.40;82.30;;;;;;4997851;28;20113;-80
2024/01/27 00:07:29;;;;;;;3.47;2.33;;;7.40;82.30;;;;;;5008736;28;20128;-80
2024/01/27 00:09:55;;;;;;;3.03;2.05;;;7.40;82.30;;;;;;5013169;28;20021;-84
2024/01/27 00:12:21;;;;;;;2.97;2.00;;;7.40;82.30;;;;;;5013590;28;20018;-85
2024/01/27 00:14:47;;;;;;;4.40;2.60;;;7.40;82.30;;;;;;5011054;28;20029;-80
2024/01/27 00:17:13;;;;;;;3.60;2.47;;;7.40;82.30;;;;;;5012286;28;20028;-89
2024/01/27 00:19:39;;;;;;;2.45;1.95;;;7.30;82.30;;;;;;5009790;28;20034;-89
2024/01/27 00:22:04;;;;;;;3.42;2.10;;;7.30;82.30;;;;;;4990395;28;20021;-80
2024/01/27 00:24:30;;;;;;;4.35;2.50;;;7.30;82.30;;;;;;5018499;28;20034;-89
2024/01/27 00:26:56;;;;;;;3.65;2.13;;;7.30;82.30;;;;;;4994094;28;20031;-84
2024/01/27 00:29:22;;;;;;;4.00;2.10;;;7.30;82.30;;;;;;5011388;28;20033;-84
2024/01/27 00:31:49;;;;;;;2.97;2.08;;;7.30;82.40;;;;;;4995204;28;20018;-84
2024/01/27 00:34:15;;;;;;;3.03;2.20;;;7.20;82.30;;;;;;5002572;28;20111;-89
2024/01/27 00:36:42;;;;;;;3.88;2.22;;;7.20;82.30;;;;;;5012408;28;20076;-89
2024/01/27 00:39:08;;;;;;;2.92;2.22;;;7.20;82.30;;;;;;5028152;28;20501;-83
2024/01/27 00:41:34;;;;;;;3.92;2.25;;;7.20;82.30;;;;;;5010005;28;20497;-89
2024/01/27 00:43:59;;;;;;;3.05;2.15;;;7.20;82.30;;;;;;4996373;28;20238;-84
2024/01/27 00:46:25;;;;;;;3.63;2.20;;;7.20;82.30;;;;;;4994617;28;20037;-83
2024/01/27 00:48:52;;;;;;;3.42;2.45;;;7.20;82.40;;;;;;4995319;28;20052;-84
2024/01/27 00:51:18;;;;;;;3.67;2.10;;;7.20;82.40;;;;;;5007342;28;20022;-90
2024/01/27 00:53:43;;;;;;;4.30;2.20;;;7.10;82.30;;;;;;5010408;28;20033;-90
2024/01/27 00:56:09;;;;;;;3.15;2.10;;;7.10;82.30;;;;;;5026225;28;20402;-80
2024/01/27 00:58:35;;;;;;;2.28;1.90;;;7.10;82.40;;;;;;4989964;28;20426;-84
2024/01/27 01:01:01;;;;;;;4.00;2.03;;;7.10;82.40;;;;;;4990927;28;20061;-90
2024/01/27 01:03:27;;;;;;;3.45;1.90;;;7.10;82.40;;;;;;5012168;28;20056;-80
2024/01/27 01:05:52;;;;;;;3.42;2.13;;;7.00;82.30;;;;;;5010205;28;20029;-89
2024/01/27 01:08:18;;;;;;;4.78;2.30;;;7.00;82.40;;;;;;5001899;28;20038;-89
2024/01/27 01:10:44;;;;;;;3.70;2.30;;;7.00;82.40;;;;;;5012280;28;20121;-84
2024/01/27 01:13:10;;;;;;;2.78;1.92;;;7.00;82.40;;;;;;5008711;28;20022;-83
2024/01/27 01:15:36;;;;;;;3.10;2.17;;;7.00;82.40;;;;;;5008550;28;20028;-80
2024/01/27 01:18:03;;;;;;;3.45;2.03;;;7.00;82.40;;;;;;4995668;28;20022;-89
2024/01/27 01:20:30;;;;;;;3.70;2.08;;;6.90;82.40;;;;;;5006814;28;20040;-83
2024/01/27 01:22:56;;;;;;;4.32;2.40;;;7.00;82.50;;;;;;4995185;28;20057;-89
2024/01/27 01:25:21;;;;;;;4.30;2.22;;;6.90;82.40;;;;;;4991293;28;20053;-89
2024/01/27 01:27:49;;;;;;;3.25;2.03;;;6.90;82.50;;;;;;5010612;28;20520;-90
2024/01/27 01:30:16;;;;;;;4.18;2.25;;;6.90;82.50;;;;;;5010132;28;20049;-88
2024/01/27 01:32:42;;;;;;;4.53;2.60;;;6.90;82.50;;;;;;5011989;28;20064;-80
2024/01/27 01:35:10;;;;;;;3.42;2.28;;;6.90;82.50;;;;;;5010956;28;20026;-83
2024/01/27 01:37:36;;;;;;;3.97;2.05;;;6.90;82.50;;;;;;4989007;28;20031;-89
2024/01/27 01:40:02;;;;;;;4.05;2.35;;;6.80;82.40;;;;;;5008413;28;20025;-84
2024/01/27 01:42:29;;;;;;;3.90;2.30;;;6.80;82.50;;;;;;5012721;28;20108;-89
2024/01/27 01:44:55;;;;;;;3.28;2.30;;;6.80;82.50;;;;;;5010611;28;20045;-89
2024/01/27 01:47:22;;;;;;;4.82;2.22;;;6.80;82.50;;;;;;5011123;28;20022;-80
2024/01/27 01:49:48;;;;;;;3.25;2.00;;;6.80;82.50;;;;;;4994065;28;20557;-89
2024/01/27 01:52:19;;;;;;;3.22;2.00;;;6.80;82.40;;;;;;5005792;28;20034;-80
2024/01/27 01:54:49;;;;;;;4.75;2.20;;;6.80;82.50;;;;;;5008393;28;20053;-84
2024/01/27 01:57:15;;;;;;;5.60;2.47;;;6.80;82.50;;;;;;5010534;28;20022;-84
2024/01/27 01:59:41;;;;;;;3.13;2.20;;;6.70;82.40;;;;;;5007370;28;20032;-80
2024/01/27 02:02:12;;;;;;;3.42;2.10;;;6.80;82.50;;;;;;4999370;28;20076;-89
2024/01/27 02:04:42;;;;;;;4.20;2.60;;;6.70;82.50;;;;;;5022868;28;20026;-83
2024/01/27 02:07:08;;;;;;;3.15;2.00;;;6.70;82.50;;;;;;5008548;28;20035;-84
2024/01/27 02:09:34;;;;;;;4.70;2.13;;;6.70;82.50;;;;;;5004289;28;20042;-85
2024/01/27 02:12:00;;;;;;;3.42;2.00;;;6.70;82.50;;;;;;4996162;28;20072;-90
2024/01/27 02:14:27;;;;;;;3.30;2.25;;;6.70;82.50;;;;;;5010049;28;20052;-83
2024/01/27 02:16:53;;;;;;;4.68;2.22;;;6.70;82.50;;;;;;5027220;28;20317;-83
2024/01/27 02:19:19;;;;;;;2.08;1.83;;;6.70;82.50;;;;;;4990679;28;20022;-84
2024/01/27 02:21:45;;;;;;;2.53;2.15;;;6.60;82.40;;;;;;4987283;28;20072;-84
2024/01/27 02:24:11;;;;;;;3.65;2.40;;;6.60;82.50;;;;;;5008913;28;20025;-88
2024/01/27 02:26:37;;;;;;;4.03;2.40;;;6.60;82.50;;;;;;5005623;28;20036;-89
2024/01/27 02:29:03;;;;;;;4.47;2.40;;;6.60;82.50;;;;;;5008648;28;20048;-84
2024/01/27 02:31:29;;;;;;;4.53;2.53;;;6.60;82.50;;;;;;4994078;28;20045;-84
2024/01/27 02:33:55;;;;;;;3.28;2.20;;;6.60;82.50;;;;;;4993662;28;20042;-80
2024/01/27 02:36:20;;;;;;;3.85;2.20;;;6.50;82.50;;;;;;5023134;28;20048;-84
2024/01/27 02:38:46;;;;;;;3.35;2.10;;;6.50;82.50;;;;;;4991177;28;20026;-84
2024/01/27 02:41:12;;;;;;;3.55;2.30;;;6.60;82.50;;;;;;4992945;28;20057;-83
2024/01/27 02:43:38;;;;;;;3.75;2.47;;;6.50;82.50;;;;;;4991708;28;20053;-83
2024/01/27 02:46:09;;;;;;;3.50;2.05;;;6.50;82.50;;;;;;4993914;28;20478;-89
2024/01/27 02:48:34;;;;;;;3.10;2.22;;;6.50;82.50;;;;;;5021371;28;20438;-83
2024/01/27 02:51:02;;;;;;;4.60;2.40;;;6.50;82.50;;;;;;4986872;28;20026;-84
2024/01/27 02:53:28;;;;;;;3.35;2.10;;;6.50;82.50;;;;;;4991300;28;20056;-80
2024/01/27 02:55:54;;;;;;;3.17;2.40;;;6.40;82.50;;;;;;4993690;28;20032;-84
2024/01/27 02:58:20;;;;;;;3.10;2.17;;;6.40;82.50;;;;;;5007995;28;20414;-84
2024/01/27 03:00:45;;;;;;;3.47;2.20;;;6.40;82.50;;;;;;4994777;28;20034;-84
2024/01/27 03:03:11;;;;;;;4.85;2.10;;;6.40;82.50;;;;;;5006447;28;20026;-80
2024/01/27 03:05:37;;;;;;;3.10;2.10;;;6.40;82.50;;;;;;4995417;28;20056;-83
2024/01/27 03:08:03;;;;;;;3.88;2.05;;;6.40;82.50;;;;;;4988800;28;20030;-84
2024/01/27 03:10:29;;;;;;;4.32;2.50;;;6.40;82.50;;;;;;4991992;28;20492;-90
2024/01/27 03:12:54;;;;;;;3.20;2.20;;;6.40;82.50;;;;;;5006844;28;20121;-84
2024/01/27 03:15:20;;;;;;;4.57;2.75;;;6.40;82.50;;;;;;5003346;28;20033;-90
2024/01/27 03:17:46;;;;;;;2.35;1.83;;;6.30;82.50;;;;;;4998477;28;20033;-83
2024/01/27 03:20:12;;;;;;;3.25;2.13;;;6.30;82.50;;;;;;4992761;28;20498;-84
2024/01/27 03:22:39;;;;;;;4.07;2.38;;;6.30;82.50;;;;;;4993372;28;20067;-84
2024/01/27 03:25:06;;;;;;;3.50;2.50;;;6.30;82.50;;;;;;5008783;28;20387;-80
2024/01/27 03:27:31;;;;;;;4.93;2.30;;;6.30;82.50;;;;;;4992127;28;20058;-83
2024/01/27 03:30:03;;;;;;;2.70;2.00;;;6.30;82.50;;;;;;5009449;28;20076;-83
2024/01/27 03:32:32;;;;;;;3.42;2.35;;;6.30;82.50;;;;;;5003388;28;20041;-89
2024/01/27 03:34:59;;;;;;;3.35;2.55;;;6.20;82.50;;;;;;5009225;28;20033;-90
2024/01/27 03:37:24;;;;;;;4.07;2.35;;;6.20;82.50;;;;;;5008215;28;21357;-83
2024/01/27 03:39:50;;;;;;;3.30;2.28;;;6.20;82.60;;;;;;4994349;28;20120;-89
2024/01/27 03:42:16;;;;;;;3.78;2.45;;;6.20;82.50;;;;;;4989481;28;20117;-90
2024/01/27 03:44:42;;;;;;;3.70;2.30;;;6.20;82.50;;;;;;4992783;28;20501;-80
2024/01/27 03:47:08;;;;;;;3.75;2.30;;;6.20;82.50;;;;;;4992806;28;20037;-83
2024/01/27 03:49:33;;;;;;;4.35;2.30;;;6.20;82.50;;;;;;4989342;28;20041;-83
2024/01/27 03:51:59;;;;;;;3.45;2.15;;;6.10;82.40;;;;;;4991504;28;20491;-89
2024/01/27 03:54:25;;;;;;;3.28;2.38;;;6.10;82.50;;;;;;5005254;28;20030;-79
2024/01/27 03:56:51;;;;;;;3.30;2.70;;;6.10;82.50;;;;;;5008147;28;20472;-82
2024/01/27 03:59:17;;;;;;;4.15;2.60;;;6.10;82.50;;;;;;4992244;28;20076;-83
2024/01/27 04:01:43;;;;;;;2.75;2.25;;;6.10;82.50;;;;;;5007476;28;20030;-80
2024/01/27 04:04:09;;;;;;;4.03;2.33;;;6.10;82.50;;;;;;4990448;28;20083;-84
2024/01/27 04:06:41;;;;;;;4.88;2.53;;;6.10;82.50;;;;;;4993194;28;20490;-83
2024/01/27 04:09:08;;;;;;;4.75;2.60;;;6.10;82.60;;;;;;5008125;28;20486;-80
2024/01/27 04:11:36;;;;;;;4.10;2.70;;;6.00;82.50;;;;;;5005620;28;20038;-90
2024/01/27 04:14:03;;;;;;;3.15;2.50;;;6.00;82.50;;;;;;4985700;28;20449;-80
2024/01/27 04:16:29;;;;;;;3.75;2.60;;;6.00;82.50;;;;;;5003724;28;20025;-80
2024/01/27 04:18:55;;;;;;;3.58;2.63;;;6.00;82.50;;;;;;5007586;28;20026;-84
2024/01/27 04:21:23;;;;;;;4.90;2.90;;;5.90;82.50;;;;;;5000663;28;20037;-84
2024/01/27 04:23:49;;;;;;;5.00;2.80;;;5.90;82.50;;;;;;4991837;28;20026;-79
2024/01/27 04:26:15;;;;;;;4.82;2.78;;;5.90;82.50;;;;;;4989043;28;20026;-80
2024/01/27 04:28:41;;;;;;;4.68;2.90;;;5.90;82.50;;;;;;4996475;28;20449;-82
2024/01/27 04:31:07;;;;;;;3.58;2.63;;;5.90;82.50;;;;;;4993768;28;20058;-80
2024/01/27 04:33:33;;;;;;;3.80;2.80;;;5.90;82.50;;;;;;4993929;28;20041;-79
2024/01/27 04:35:59;;;;;;;4.22;2.95;;;5.90;82.50;;;;;;4993456;28;20030;-83
2024/01/27 04:38:25;;;;;;;5.60;2.92;;;5.90;82.50;;;;;;4995063;28;20021;-83
2024/01/27 04:40:52;;;;;;;3.55;2.70;;;5.80;82.50;;;;;;4993626;28;20033;-83
2024/01/27 04:43:20;;;;;;;3.95;2.95;;;5.80;82.40;;;;;;4993257;28;20209;-89
2024/01/27 04:45:47;;;;;;;5.47;3.20;;;5.80;82.50;;;;;;5007816;28;20113;-80
2024/01/27 04:48:13;;;;;;;3.58;3.00;;;5.80;82.50;;;;;;4994727;28;20077;-79
2024/01/27 04:50:38;;;;;;;4.63;3.10;;;5.70;82.40;;;;;;4990034;28;20040;-89
2024/01/27 04:53:04;;;;;;;4.32;3.25;;;5.80;82.50;;;;;;5012349;28;20033;-83
2024/01/27 04:55:30;;;;;;;3.58;2.72;;;5.70;82.40;;;;;;4993800;28;20038;-83
2024/01/27 04:57:58;;;;;;;4.28;2.80;;;5.70;82.50;;;;;;5012605;28;20030;-84
2024/01/27 05:00:26;;;;;;;5.25;3.13;;;5.70;82.40;;;;;;5029135;28;20026;-83
2024/01/27 05:02:52;;;;;;;5.47;3.33;;;5.70;82.40;;;;;;4993328;28;20041;-83
2024/01/27 05:05:18;;;;;;;4.70;3.00;;;5.70;82.40;;;;;;4994040;28;20034;-83
2024/01/27 05:07:44;;;;;;;4.88;3.35;;;5.70;82.50;;;;;;4984539;28;20037;-88
2024/01/27 05:10:14;;;;;;;4.68;3.33;;;5.60;82.40;;;;;;4993489;28;20088;-80
2024/01/27 05:12:40;;;;;;;5.28;3.45;;;5.60;82.40;;;;;;5009018;28;20478;-83
2024/01/27 05:15:06;;;;;;;5.78;3.65;;;5.60;82.40;;;;;;4994368;28;20445;-79
2024/01/27 05:17:31;;;;;;;5.05;3.22;;;5.60;82.50;;;;;;4993377;28;20058;-89
2024/01/27 05:20:04;;;;;;;5.40;3.85;;;5.60;82.50;;;;;;4999193;28;20376;-88
2024/01/27 05:22:30;;;;;;;4.13;3.05;;;5.60;82.50;;;;;;5000302;28;20037;-82
2024/01/27 05:24:56;;;;;;;6.03;3.90;;;5.60;82.50;;;;;;4995039;28;20025;-89
2024/01/27 05:27:22;;;;;;;5.15;3.63;;;5.50;82.40;;;;;;5002043;28;20152;-79
2024/01/27 05:29:48;;;;;;;5.18;3.67;;;5.50;82.50;;;;;;4984690;28;20132;-89
2024/01/27 05:32:13;;;;;;;4.93;3.45;;;5.50;82.40;;;;;;4989327;28;20060;-83
2024/01/27 05:34:39;;;;;;;5.70;3.90;;;5.50;82.50;;;;;;4990873;28;20085;-79
2024/01/27 05:37:05;;;;;;;6.13;3.63;;;5.50;82.40;;;;;;4993876;28;20022;-89
2024/01/27 05:39:32;;;;;;;5.95;3.95;;;5.40;82.40;;;;;;5007173;28;20052;-82
2024/01/27 05:41:58;;;;;;;5.50;4.25;;;5.40;82.40;;;;;;4990975;28;20022;-83
2024/01/27 05:44:24;;;;;;;7.15;4.15;;;5.40;82.40;;;;;;4991486;28;20055;-89
2024/01/27 05:46:50;;;;;;;6.72;4.32;;;5.40;82.40;;;;;;5009607;28;20272;-82
2024/01/27 05:49:17;;;;;;;5.90;4.07;;;5.40;82.40;;;;;;5009603;28;20042;-79
2024/01/27 05:51:43;;;;;;;5.18;3.63;;;5.40;82.40;;;;;;5011136;28;20564;-89
2024/01/27 05:54:09;;;;;;;5.65;3.90;;;5.40;82.40;;;;;;5009889;28;20464;-89
2024/01/27 05:56:36;;;;;;;5.40;3.80;;;5.40;82.40;;;;;;4995707;28;20025;-83
2024/01/27 05:59:02;;;;;;;7.25;4.32;;;5.40;82.50;;;;;;4995359;28;20029;-83
2024/01/27 06:01:28;;;;;;;5.82;4.05;;;5.40;82.40;;;;;;4984454;28;20026;-84
2024/01/27 06:03:54;;;;;;;7.10;4.28;;;5.40;82.50;;;;;;5011063;28;20079;-82
2024/01/27 06:06:20;;;;;;;5.43;4.05;;;5.40;82.40;;;;;;4992055;28;20065;-80
2024/01/27 06:08:46;;;;;;;6.45;4.50;;;5.30;82.40;;;;;;5010149;28;20030;-84
2024/01/27 06:11:11;;;;;;;6.25;4.10;;;5.30;82.40;;;;;;4992852;28;20033;-83
2024/01/27 06:13:40;;;;;;;6.32;4.55;;;5.30;82.40;;;;;;4994594;28;20565;-83
2024/01/27 06:16:08;;;;;;;6.20;4.45;;;5.30;82.50;;;;;;5006741;28;20473;-83
2024/01/27 06:18:35;;;;;;;6.85;4.35;;;5.30;82.40;;;;;;5008982;28;20056;-89
2024/01/27 06:21:01;;;;;;;5.45;4.05;;;5.30;82.40;;;;;;5007553;28;20125;-83
2024/01/27 06:23:26;;;;;;;6.65;4.32;;;5.30;82.40;;;;;;4992600;28;20136;-89
2024/01/27 06:25:52;;;;;;;4.93;4.03;;;5.30;82.40;;;;;;5009597;28;20018;-82
2024/01/27 06:28:18;;;;;;;6.10;4.35;;;5.30;82.40;;;;;;4993718;28;20529;-82
2024/01/27 06:30:44;;;;;;;5.25;3.90;;;5.30;82.40;;;;;;4994266;28;20032;-83
2024/01/27 06:33:09;;;;;;;6.05;4.60;;;5.20;82.40;;;;;;5010405;28;20128;-88
2024/01/27 06:35:35;;;;;;;5.88;4.10;;;5.20;82.40;;;;;;5008573;28;20112;-82
2024/01/27 06:38:01;;;;;;;5.68;4.32;;;5.20;82.40;;;;;;5008925;28;20052;-88
2024/01/27 06:40:27;;;;;;;5.72;4.40;;;5.20;82.40;;;;;;5009706;28;20539;-79
2024/01/27 06:42:53;;;;;;;6.78;4.70;;;5.20;82.40;;;;;;5002102;28;20058;-79
2024/01/27 06:45:19;;;;;;;5.50;4.47;;;5.20;82.40;;;;;;5024136;28;20409;-83
2024/01/27 06:47:45;;;;;;;5.75;4.35;;;5.20;82.40;;;;;;4992263;28;21694;-88
2024/01/27 06:50:11;;;;;;;6.35;4.63;;;5.20;82.40;;;;;;4991354;28;20053;-83
2024/01/27 06:52:36;;;;;;;5.93;4.18;;;5.10;82.40;;;;;;5019609;28;20034;-83
2024/01/27 06:55:02;;;;;;;5.20;4.50;;;5.20;82.40;;;;;;5007025;28;20100;-83
2024/01/27 06:57:28;;;;;;;5.90;4.53;;;5.20;82.40;;;;;;5006666;28;20042;-83
2024/01/27 06:59:55;;;;;;;6.28;4.72;;;5.10;82.40;;;;;;5009058;28;20053;-80
2024/01/27 07:02:26;;;;;;;6.40;4.53;;;5.10;82.40;;;;;;4991364;28;20018;-82
2024/01/27 07:04:52;;;;;;;6.95;4.78;;;5.10;82.40;;;;;;5003036;28;20477;-89
2024/01/27 07:07:25;;;;;;;6.85;4.90;;;5.10;82.40;;;;;;4992030;28;20026;-80
2024/01/27 07:09:51;;;;;;;6.10;4.60;;;5.10;82.40;;;;;;4989533;28;20026;-83
2024/01/27 07:12:17;;;;;;;7.10;5.18;;;5.00;82.40;;;;;;5010639;28;20337;-83
2024/01/27 07:14:43;;;;;;;7.50;4.85;;;5.10;82.40;;;;;;5009397;28;20108;-80
2024/01/27 07:17:09;;;;;;;6.30;4.35;;;5.00;82.40;;;;;;4992669;28;20120;-83
2024/01/27 07:19:35;;;;;;;7.70;4.70;;;5.00;82.40;;;;;;5006967;28;20120;-83
2024/01/27 07:22:01;;;;;;;7.65;4.97;;;5.00;82.40;;;;;;4993297;28;20080;-89
2024/01/27 07:24:27;;;;;;;6.80;5.10;;;5.00;82.40;;;;;;5012102;28;20055;-78
2024/01/27 07:26:52;;;;;;;7.65;4.75;;;5.00;82.40;;;;;;4993348;28;20037;-79
2024/01/27 07:29:19;;;;;;;6.30;4.72;;;5.00;82.40;;;;;;4991767;28;20034;-83
2024/01/27 07:31:45;;;;;;;7.15;5.20;;;4.90;82.40;;;;;;4990826;28;20037;-79
2024/01/27 07:34:11;;;;;;;7.15;4.78;;;5.00;82.40;;;;;;5007195;28;20046;-80
2024/01/27 07:36:37;;;;;;;5.65;4.68;;;4.90;82.40;;;;;;5017029;28;20084;-80
2024/01/27 07:39:04;;;;;;;5.82;4.78;;;5.00;82.40;;;;;;5000088;28;20030;-82
2024/01/27 07:41:31;;;;;;;7.05;4.60;;;4.90;82.40;;;;;;4990085;28;20030;-83
2024/01/27 07:43:56;;;;;;;5.78;4.70;;;4.90;82.40;;;;;;5000813;28;20030;-83
2024/01/27 07:46:22;;;;;;;5.82;4.72;;;4.90;82.40;;;;;;4990939;28;20073;-86
2024/01/27 07:48:49;;;;;;;6.07;4.43;;;4.90;82.40;;;;;;4996655;28;20030;-83
2024/01/27 07:51:15;;;;;;;6.05;4.97;;;4.90;83.00;;;;;;4980087;28;20046;-82
2024/01/27 07:53:41;;;;;;;7.00;4.90;;;4.80;82.30;;;;;;5010796;28;20038;-82
2024/01/27 07:56:07;;;;;;;6.00;4.55;;;4.80;82.30;;;;;;4985381;28;20085;-82
2024/01/27 07:58:33;;;;;;;6.40;4.75;;;4.80;82.40;;;;;;5006609;28;20045;-80
2024/01/27 08:01:00;;;;;;;6.70;4.97;;;4.80;82.30;;;;;;4986674;28;20037;-81
2024/01/27 08:03:26;;;;;;;6.90;4.97;;;4.80;82.30;;;;;;5009870;28;20116;-83
2024/01/27 08:05:51;;;;;;;7.45;4.72;;;4.80;82.30;;;;;;5005485;28;20023;-82
2024/01/27 08:08:17;;;;;;;6.25;4.80;;;4.80;82.40;;;;;;5011840;28;20044;-86
2024/01/27 08:10:44;;;;;;;6.05;4.88;;;4.80;82.40;;;;;;5006226;28;20531;-80
2024/01/27 08:13:10;;;;;;;6.50;5.32;;;4.80;82.40;;;;;;5016862;28;20049;-86
2024/01/27 08:15:36;;;;;;;6.63;5.28;;;4.80;82.40;;;;;;4987914;28;20113;-83
2024/01/27 08:18:02;;;;;;;5.85;4.93;;;4.80;82.40;;;;;;5007745;28;20030;-80
2024/01/27 08:20:27;;;;;;;6.03;5.20;;;4.70;82.30;;;;;;5001649;28;20038;-84
2024/01/27 08:22:53;;;;;;;6.18;4.97;;;4.70;82.30;;;;;;5011183;28;20390;-82
2024/01/27 08:25:19;;;;;;;7.05;5.13;;;4.70;82.30;;;;;;4990828;28;20041;-87
2024/01/27 08:27:45;;;;;;;6.65;5.32;;;4.70;82.30;;;;;;4993476;28;20013;-83
2024/01/27 08:30:11;;;;;;;7.10;5.18;;;4.70;82.30;;;;;;4981549;28;20367;-84
2024/01/27 08:32:37;;;;;;;6.55;5.10;;;4.70;82.30;;;;;;5002976;28;20422;-81
2024/01/27 08:35:03;;;;;;;7.05;5.32;;;4.70;82.30;;;;;;4997380;28;20114;-80
2024/01/27 08:37:29;;;;;;;6.72;4.80;;;4.70;82.30;;;;;;4995133;28;20089;-87
2024/01/27 08:39:55;;;;;;;6.57;5.22;;;4.70;82.30;;;;;;5006072;28;20026;-79
2024/01/27 08:42:21;;;;;;;6.45;5.30;;;4.70;82.30;;;;;;4993602;28;20088;-80
2024/01/27 08:44:47;;;;;;;6.72;5.07;;;4.70;82.30;;;;;;5006511;28;20037;-83
2024/01/27 08:47:12;;;;;;;6.80;5.30;;;4.70;82.30;;;;;;5002803;28;20121;-86
2024/01/27 08:49:38;;;;;;;6.38;5.00;;;4.70;82.30;;;;;;4992419;28;20310;-81
2024/01/27 08:52:04;;;;;;;7.00;5.38;;;4.70;82.30;;;;;;5011351;28;20029;-81
2024/01/27 08:54:30;;;;;;;6.10;4.95;;;4.70;82.30;;;;;;4992684;28;20279;-80
2024/01/27 08:56:56;;;;;;;6.40;5.32;;;4.70;82.30;;;;;;4997244;28;20034;-86
2024/01/27 08:59:22;;;;;;;6.97;5.53;;;4.70;82.30;;;;;;5003986;28;20184;-85
2024/01/27 09:01:47;;;;;;;6.55;5.43;;;4.70;82.30;;;;;;5003370;28;20072;-84
2024/01/27 09:04:13;;;;;;;7.13;5.32;;;4.70;82.20;;;;;;5012484;28;20659;-82
2024/01/27 09:06:39;;;;;;;6.82;5.13;;;4.70;82.30;;;;;;4997382;28;20478;-84
2024/01/27 09:09:05;;;;;;;6.38;4.85;;;4.70;82.20;;;;;;4993691;28;20026;-81
2024/01/27 09:11:32;;;;;;;6.82;5.45;;;4.70;82.20;;;;;;5007647;28;20026;-81
2024/01/27 09:13:57;;;;;;;6.75;5.38;;;4.70;82.30;;;;;;5007636;28;20044;-83
2024/01/27 09:16:23;;;;;;;6.07;5.18;;;4.70;82.20;;;;;;5006648;28;20034;-85
2024/01/27 09:18:50;;;;;;;6.97;5.38;;;4.70;82.20;;;;;;5009935;28;20076;-85
2024/01/27 09:21:20;;;;;;;6.05;5.20;;;4.70;82.20;;;;;;5001772;28;20471;-83
2024/01/27 09:23:47;;;;;;;6.97;5.78;;;4.70;82.20;;;;;;4983821;28;20041;-83
2024/01/27 09:26:13;;;;;;;6.28;5.28;;;4.70;82.20;;;;;;4996379;28;20033;-81
2024/01/27 09:28:43;;;;;;;6.38;4.57;;;4.80;82.20;;;;;;5001977;28;20064;-83
2024/01/27 09:31:13;;;;;;;6.05;4.93;;;4.80;82.20;;;;;;4995756;28;20033;-81
2024/01/27 09:33:39;;;;;;;6.40;4.90;;;4.80;82.20;;;;;;5006353;28;20042;-83
2024/01/27 09:36:05;;;;;;;5.70;5.10;;;4.80;82.20;;;;;;4995406;28;20029;-83
2024/01/27 09:38:30;;;;;;;5.97;5.07;;;4.80;82.20;;;;;;5018998;28;20034;-82
2024/01/27 09:40:56;;;;;;;6.45;5.03;;;4.80;82.10;;;;;;4990413;28;20097;-85
2024/01/27 09:43:25;;;;;;;6.35;5.15;;;4.90;82.20;;;;;;5003375;28;20277;-79
2024/01/27 09:45:55;;;;;;;7.03;5.40;;;4.90;82.20;;;;;;5016670;28;20082;-96
2024/01/27 09:48:21;;;;;;;6.70;4.97;;;4.90;82.20;;;;;;5015530;28;20060;-95
2024/01/27 09:50:49;;;;;;;6.43;5.20;;;4.90;82.10;;;;;;4996073;28;20545;-84
2024/01/27 09:53:15;;;;;;;6.07;4.75;;;5.00;82.20;;;;;;4985270;28;20391;-79
2024/01/27 09:55:41;;;;;;;6.75;4.95;;;5.00;82.10;;;;;;4982864;28;20394;-81
2024/01/27 09:58:08;;;;;;;6.78;5.10;;;5.00;82.10;;;;;;5004031;28;20489;-84
2024/01/27 10:00:36;;;;;;;6.88;5.20;;;5.00;82.10;;;;;;4994112;28;20037;-90
2024/01/27 10:03:04;;;;;;;5.70;5.10;;;5.00;82.10;;;;;;4989631;28;20022;-82
2024/01/27 10:05:32;;;;;;;6.68;5.63;;;5.10;82.10;;;;;;5006466;28;20033;-84
2024/01/27 10:07:58;;;;;;;7.60;5.10;;;5.10;82.10;;;;;;4985015;28;20305;-84
2024/01/27 10:10:23;;;;;;;6.10;4.90;;;5.10;82.10;;;;;;4987094;28;20030;-81
2024/01/27 10:12:55;;;;;;;7.15;5.20;;;5.10;82.10;;;;;;5002600;28;20034;-85
2024/01/27 10:15:22;;;;;;;6.38;5.18;;;5.20;82.10;;;;;;5008814;28;20037;-89
2024/01/27 10:17:49;;;;;;;6.97;5.75;;;5.20;82.10;;;;;;4989100;28;20041;-82
2024/01/27 10:20:18;;;;;;;8.32;6.57;;;5.20;82.10;;;;;;4999168;28;20243;-90
2024/01/27 10:22:45;;;;;;;8.95;7.22;;;5.20;82.10;;;;;;4990335;28;20125;-88
2024/01/27 10:25:11;;;;;;;11.30;6.45;;;5.30;82.20;;;;;;4987096;28;20132;-85
2024/01/27 10:27:38;;;;;;;8.52;7.10;;;5.30;82.10;;;;;;4992087;28;20054;-83
2024/01/27 10:30:05;;;;;;;11.50;7.22;;;5.40;82.10;;;;;;5011940;28;20478;-78
2024/01/27 10:32:31;;;;;;;11.68;7.43;;;5.40;82.10;;;;;;4985412;28;20033;-82
2024/01/27 10:35:05;;;;;;;11.02;7.78;;;5.50;82.10;;;;;;4992058;28;20038;-84
2024/01/27 10:37:31;;;;;;;11.48;8.27;;;5.50;82.20;;;;;;5007996;28;20032;-90
2024/01/27 10:40:10;;;;;;;12.90;8.80;;;5.50;82.10;;;;;;5006439;28;20037;-84
2024/01/27 10:42:37;;;;;;;11.73;8.32;;;5.60;82.20;;;;;;5011618;28;20022;-83
2024/01/27 10:45:04;;;;;;;9.80;8.02;;;5.60;82.10;;;;;;4995617;28;20060;-79
2024/01/27 10:47:31;;;;;;;11.77;8.40;;;5.60;82.10;;;;;;4997182;28;20026;-77
2024/01/27 10:49:58;;;;;;;9.70;6.95;;;5.70;82.10;;;;;;4993319;28;20048;-81
2024/01/27 10:52:41;;;;;;;9.82;7.25;;;5.70;82.10;;;;;;4992098;28;20509;-82
2024/01/27 10:55:09;;;;;;;9.00;6.38;;;5.80;82.20;;;;;;5010341;28;20030;-83
2024/01/27 10:57:37;;;;;;;8.80;6.50;;;5.70;82.10;;;;;;4993379;28;20033;-77
2024/01/27 11:00:08;;;;;;;12.48;6.95;;;5.70;82.20;;;;;;4993544;28;20021;-82
2024/01/27 11:02:35;;;;;;;8.38;6.93;;;5.80;82.30;;;;;;4972829;28;20084;-77
2024/01/27 11:05:03;;;;;;;7.15;6.05;;;5.80;82.30;;;;;;5006864;28;20029;-81
2024/01/27 11:07:34;;;;;;;8.07;6.03;;;5.80;82.40;;;;;;4993594;28;20049;-81
2024/01/27 11:10:00;;;;;;;7.78;6.10;;;5.80;82.40;;;;;;4987538;28;20036;-78
2024/01/27 11:12:26;;;;;;;9.32;6.13;;;5.80;82.40;;;;;;4993015;28;20040;-78
2024/01/27 11:14:52;;;;;;;8.45;6.30;;;5.90;82.50;;;;;;4989169;28;20434;-81
2024/01/27 11:17:21;;;;;;;8.38;6.60;;;5.90;82.50;;;;;;5002022;28;20022;-94
2024/01/27 11:19:47;;;;;;;7.72;5.72;;;5.90;82.50;;;;;;4987119;28;20093;-92
2024/01/27 11:22:27;;;;;;;7.55;5.78;;;5.90;82.50;;;;;;5010272;28;20018;-83
2024/01/27 11:25:12;;;;;;;7.22;5.50;;;5.90;82.60;;;;;;4993204;28;20029;-82
2024/01/27 11:27:43;;;;;;;7.75;5.85;;;5.90;82.40;;;;;;5009903;28;20097;-78
2024/01/27 11:30:28;;;;;;;8.48;5.57;;;5.90;82.40;;;;;;4990276;28;20117;-78
2024/01/27 11:33:00;;;;;;;6.97;5.22;;;6.00;82.60;;;;;;5007111;28;20176;-78
2024/01/27 11:35:27;;;;;;;7.75;5.85;;;6.00;82.50;;;;;;4991791;28;20045;-83
2024/01/27 11:37:54;;;;;;;7.88;6.15;;;6.00;82.50;;;;;;5009166;28;20034;-85
2024/01/27 11:40:20;;;;;;;9.13;7.07;;;6.10;82.60;;;;;;5011202;28;20037;-83
2024/01/27 11:43:00;;;;;;;8.18;6.05;;;6.10;82.60;;;;;;5014316;28;20022;-83
2024/01/27 11:45:28;;;;;;;8.25;5.85;;;6.20;82.60;;;;;;5010425;28;20038;-79
2024/01/27 11:47:55;;;;;;;8.90;6.43;;;6.20;82.50;;;;;;5013444;28;20357;-83
2024/01/27 11:50:21;;;;;;;8.65;6.35;;;6.20;82.50;;;;;;5013723;28;20104;-93
2024/01/27 11:52:47;;;;;;;9.30;6.22;;;6.20;83.20;;;;;;4995365;28;20122;-79
2024/01/27 11:55:15;;;;;;;8.63;6.40;;;6.30;82.60;;;;;;4992096;28;20386;-92
2024/01/27 11:57:42;;;;;;;7.50;5.65;;;6.30;82.70;;;;;;4992791;28;20030;-81
2024/01/27 12:00:11;;;;;;;6.97;4.95;;;6.30;82.60;;;;;;4990330;28;20041;-78
2024/01/27 12:02:41;;;;;;;7.63;5.53;;;6.30;82.70;;;;;;5006866;28;20713;-81
2024/01/27 12:05:08;;;;;;;8.40;5.50;;;6.30;82.70;;;;;;4988029;28;20057;-77
2024/01/27 12:07:34;;;;;;;8.35;5.35;;;6.40;82.70;;;;;;4987790;28;20455;-83
2024/01/27 12:10:03;;;;;;;7.00;5.47;;;6.40;82.70;;;;;;5004684;28;20038;-78
2024/01/27 12:12:29;;;;;;;7.32;5.75;;;6.40;82.80;;;;;;5004135;28;20034;-79
2024/01/27 12:14:55;;;;;;;7.43;5.13;;;6.40;82.80;;;;;;5005719;28;20037;-92
2024/01/27 12:17:22;;;;;;;6.65;5.15;;;6.40;82.80;;;;;;4997326;28;20088;-79
2024/01/27 12:19:50;;;;;;;6.03;5.07;;;6.50;82.90;;;;;;5004235;28;20050;-83
2024/01/27 12:22:22;;;;;;;7.53;5.13;;;6.50;82.90;;;;;;5013082;28;20129;-82
2024/01/27 12:24:48;;;;;;;6.85;5.43;;;6.50;82.90;;;;;;5012866;28;20034;-92
2024/01/27 12:27:14;;;;;;;7.97;5.53;;;6.60;82.90;;;;;;5013582;28;20033;-83
2024/01/27 12:29:43;;;;;;;6.57;5.03;;;6.60;82.90;;;;;;4995287;28;20044;-86
2024/01/27 12:32:09;;;;;;;7.35;5.22;;;6.60;82.90;;;;;;5007599;28;20030;-92
2024/01/27 12:34:47;;;;;;;6.70;5.22;;;6.70;82.90;;;;;;4994849;28;20049;-77
2024/01/27 12:37:13;;;;;;;7.07;4.70;;;6.70;82.90;;;;;;5006006;28;20026;-82
2024/01/27 12:39:44;;;;;;;6.97;5.10;;;6.70;82.80;;;;;;5013751;28;20092;-82
2024/01/27 12:42:10;;;;;;;6.22;4.68;;;6.80;82.90;;;;;;5018941;28;20041;-92
2024/01/27 12:44:36;;;;;;;6.28;4.70;;;6.80;82.80;;;;;;5004935;28;20022;-83
2024/01/27 12:47:02;;;;;;;6.85;4.75;;;6.80;82.80;;;;;;4983650;28;20083;-79
2024/01/27 12:49:30;;;;;;;7.00;4.30;;;6.90;82.80;;;;;;4989235;28;20117;-83
2024/01/27 12:51:55;;;;;;;6.90;4.65;;;6.90;82.80;;;;;;4994485;28;20461;-82
2024/01/27 12:54:21;;;;;;;5.55;4.28;;;7.00;82.80;;;;;;5012880;28;20034;-83